sensor_id;sensor_type;location;lat;lon;timestamp;temperature;humidity
50738;DHT22;36703;48.154;17.126;2023-04-15T00:03:07;10.40;60.90
50738;DHT22;36703;48.154;17.126;2023-04-15T00:07:08;10.40;61.10
50738;DHT22;36703;48.154;17.126;2023-04-15T00:11:10;10.50;61.10
50738;DHT22;36703;48.154;17.126;2023-04-15T00:15:12;10.60;61.00
50738;DHT22;36703;48.154;17.126;2023-04-15T00:19:13;10.60;60.90
50738;DHT22;36703;48.154;17.126;2023-04-15T00:23:15;10.60;60.80
50738;DHT22;36703;48.154;17.126;2023-04-15T00:27:16;10.60;61.00
50738;DHT22;36703;48.154;17.126;2023-04-15T00:31:18;10.60;61.00
50738;DHT22;36703;48.154;17.126;2023-04-15T00:35:20;10.70;60.90
50738;DHT22;36703;48.154;17.126;2023-04-15T00:39:22;10.70;60.80
50738;DHT22;36703;48.154;17.126;2023-04-15T00:43:23;10.60;60.70
50738;DHT22;36703;48.154;17.126;2023-04-15T00:47:26;10.60;60.70
50738;DHT22;36703;48.154;17.126;2023-04-15T00:51:29;10.60;60.80
50738;DHT22;36703;48.154;17.126;2023-04-15T00:55:33;10.60;60.80
50738;DHT22;36703;48.154;17.126;2023-04-15T00:59:35;10.60;60.60
50738;DHT22;36703;48.154;17.126;2023-04-15T01:03:36;10.60;60.70
50738;DHT22;36703;48.154;17.126;2023-04-15T01:07:39;10.50;60.70
50738;DHT22;36703;48.154;17.126;2023-04-15T01:11:41;10.60;60.70
50738;DHT22;36703;48.154;17.126;2023-04-15T01:15:43;10.60;60.60
50738;DHT22;36703;48.154;17.126;2023-04-15T01:19:44;10.60;60.70
50738;DHT22;36703;48.154;17.126;2023-04-15T01:23:46;10.60;60.60
50738;DHT22;36703;48.154;17.126;2023-04-15T01:27:48;10.60;60.60
50738;DHT22;36703;48.154;17.126;2023-04-15T01:31:51;10.60;60.50
50738;DHT22;36703;48.154;17.126;2023-04-15T01:35:53;10.60;60.60
50738;DHT22;36703;48.154;17.126;2023-04-15T01:39:59;10.60;60.50
50738;DHT22;36703;48.154;17.126;2023-04-15T01:44:00;10.60;60.60
50738;DHT22;36703;48.154;17.126;2023-04-15T01:48:02;10.60;60.70
50738;DHT22;36703;48.154;17.126;2023-04-15T01:52:03;10.60;60.60
50738;DHT22;36703;48.154;17.126;2023-04-15T01:56:05;10.60;60.50
50738;DHT22;36703;48.154;17.126;2023-04-15T02:00:07;10.60;60.60
50738;DHT22;36703;48.154;17.126;2023-04-15T02:04:14;10.50;60.50
50738;DHT22;36703;48.154;17.126;2023-04-15T02:08:18;10.60;60.50
50738;DHT22;36703;48.154;17.126;2023-04-15T02:12:20;10.60;60.50
50738;DHT22;36703;48.154;17.126;2023-04-15T02:16:22;10.60;60.40
50738;DHT22;36703;48.154;17.126;2023-04-15T02:20:23;10.60;61.10
50738;DHT22;36703;48.154;17.126;2023-04-15T02:24:25;10.60;60.30
50738;DHT22;36703;48.154;17.126;2023-04-15T02:28:26;10.60;60.20
50738;DHT22;36703;48.154;17.126;2023-04-15T02:32:28;10.60;60.20
50738;DHT22;36703;48.154;17.126;2023-04-15T02:36:30;10.60;60.20
50738;DHT22;36703;48.154;17.126;2023-04-15T02:40:31;10.60;60.30
50738;DHT22;36703;48.154;17.126;2023-04-15T02:44:33;10.60;60.20
50738;DHT22;36703;48.154;17.126;2023-04-15T02:48:38;10.60;60.10
50738;DHT22;36703;48.154;17.126;2023-04-15T02:52:40;10.60;60.20
50738;DHT22;36703;48.154;17.126;2023-04-15T02:56:42;10.60;60.10
50738;DHT22;36703;48.154;17.126;2023-04-15T03:00:43;10.60;60.10
50738;DHT22;36703;48.154;17.126;2023-04-15T03:04:44;10.70;60.10
50738;DHT22;36703;48.154;17.126;2023-04-15T03:08:46;10.80;60.00
50738;DHT22;36703;48.154;17.126;2023-04-15T03:12:47;10.80;60.00
50738;DHT22;36703;48.154;17.126;2023-04-15T03:16:54;10.80;59.90
50738;DHT22;36703;48.154;17.126;2023-04-15T03:20:56;10.90;60.00
50738;DHT22;36703;48.154;17.126;2023-04-15T03:24:58;10.90;59.90
50738;DHT22;36703;48.154;17.126;2023-04-15T03:28:59;10.90;59.80
50738;DHT22;36703;48.154;17.126;2023-04-15T03:33:01;11.30;60.00
50738;DHT22;36703;48.154;17.126;2023-04-15T03:37:04;10.90;59.70
50738;DHT22;36703;48.154;17.126;2023-04-15T03:41:05;11.10;59.80
50738;DHT22;36703;48.154;17.126;2023-04-15T03:45:07;10.90;59.70
50738;DHT22;36703;48.154;17.126;2023-04-15T03:49:09;10.90;59.90
50738;DHT22;36703;48.154;17.126;2023-04-15T03:53:10;10.90;59.90
50738;DHT22;36703;48.154;17.126;2023-04-15T03:57:12;10.90;59.90
50738;DHT22;36703;48.154;17.126;2023-04-15T04:01:13;10.90;59.90
50738;DHT22;36703;48.154;17.126;2023-04-15T04:05:15;11.00;59.90
50738;DHT22;36703;48.154;17.126;2023-04-15T04:09:16;11.00;59.90
50738;DHT22;36703;48.154;17.126;2023-04-15T04:13:18;11.00;59.80
50738;DHT22;36703;48.154;17.126;2023-04-15T04:17:19;11.10;59.80
50738;DHT22;36703;48.154;17.126;2023-04-15T04:21:20;11.10;59.80
50738;DHT22;36703;48.154;17.126;2023-04-15T04:25:22;11.10;59.80
50738;DHT22;36703;48.154;17.126;2023-04-15T04:29:24;11.10;59.80
50738;DHT22;36703;48.154;17.126;2023-04-15T04:33:25;11.20;59.80
50738;DHT22;36703;48.154;17.126;2023-04-15T04:37:27;11.20;59.70
50738;DHT22;36703;48.154;17.126;2023-04-15T04:41:28;11.10;59.70
50738;DHT22;36703;48.154;17.126;2023-04-15T04:45:29;11.10;59.80
50738;DHT22;36703;48.154;17.126;2023-04-15T04:49:31;11.00;59.80
50738;DHT22;36703;48.154;17.126;2023-04-15T04:53:32;11.20;59.90
50738;DHT22;36703;48.154;17.126;2023-04-15T04:57:34;11.20;59.80
50738;DHT22;36703;48.154;17.126;2023-04-15T05:01:39;11.20;59.80
50738;DHT22;36703;48.154;17.126;2023-04-15T05:05:41;11.20;59.90
50738;DHT22;36703;48.154;17.126;2023-04-15T05:09:42;11.20;59.80
50738;DHT22;36703;48.154;17.126;2023-04-15T05:13:43;11.30;59.90
50738;DHT22;36703;48.154;17.126;2023-04-15T05:17:45;11.30;59.80
50738;DHT22;36703;48.154;17.126;2023-04-15T05:21:46;11.30;59.80
50738;DHT22;36703;48.154;17.126;2023-04-15T05:25:47;11.30;59.70
50738;DHT22;36703;48.154;17.126;2023-04-15T05:29:49;11.40;59.70
50738;DHT22;36703;48.154;17.126;2023-04-15T05:33:50;11.30;59.70
50738;DHT22;36703;48.154;17.126;2023-04-15T05:37:52;11.40;59.80
50738;DHT22;36703;48.154;17.126;2023-04-15T05:41:53;11.40;59.80
50738;DHT22;36703;48.154;17.126;2023-04-15T05:45:54;11.40;59.90
50738;DHT22;36703;48.154;17.126;2023-04-15T05:49:56;11.40;59.80
50738;DHT22;36703;48.154;17.126;2023-04-15T05:53:59;11.40;59.80
50738;DHT22;36703;48.154;17.126;2023-04-15T05:58:00;11.40;59.80
50738;DHT22;36703;48.154;17.126;2023-04-15T06:02:01;11.50;60.00
50738;DHT22;36703;48.154;17.126;2023-04-15T06:10:05;11.60;60.20
50738;DHT22;36703;48.154;17.126;2023-04-15T06:14:07;11.60;59.70
50738;DHT22;36703;48.154;17.126;2023-04-15T06:18:08;11.50;59.80
50738;DHT22;36703;48.154;17.126;2023-04-15T06:22:10;11.60;59.90
50738;DHT22;36703;48.154;17.126;2023-04-15T06:26:11;11.60;59.90
50738;DHT22;36703;48.154;17.126;2023-04-15T06:30:12;11.60;59.90
50738;DHT22;36703;48.154;17.126;2023-04-15T06:34:14;11.60;60.00
50738;DHT22;36703;48.154;17.126;2023-04-15T06:38:15;11.70;60.20
50738;DHT22;36703;48.154;17.126;2023-04-15T06:42:17;11.80;60.10
50738;DHT22;36703;48.154;17.126;2023-04-15T06:46:18;11.80;59.70
50738;DHT22;36703;48.154;17.126;2023-04-15T06:50:19;11.80;60.00
50738;DHT22;36703;48.154;17.126;2023-04-15T06:54:21;11.70;59.90
50738;DHT22;36703;48.154;17.126;2023-04-15T06:58:22;11.70;60.00
50738;DHT22;36703;48.154;17.126;2023-04-15T07:02:23;11.70;60.20
50738;DHT22;36703;48.154;17.126;2023-04-15T07:06:25;11.90;60.20
50738;DHT22;36703;48.154;17.126;2023-04-15T07:10:27;12.10;60.10
50738;DHT22;36703;48.154;17.126;2023-04-15T07:14:28;12.20;59.80
50738;DHT22;36703;48.154;17.126;2023-04-15T07:18:30;12.30;59.60
50738;DHT22;36703;48.154;17.126;2023-04-15T07:22:31;12.30;59.60
50738;DHT22;36703;48.154;17.126;2023-04-15T07:26:33;12.30;59.50
50738;DHT22;36703;48.154;17.126;2023-04-15T07:30:34;12.30;59.20
50738;DHT22;36703;48.154;17.126;2023-04-15T07:34:35;12.30;59.20
50738;DHT22;36703;48.154;17.126;2023-04-15T07:38:38;12.20;59.20
50738;DHT22;36703;48.154;17.126;2023-04-15T07:42:39;12.10;59.20
50738;DHT22;36703;48.154;17.126;2023-04-15T07:46:41;12.10;59.20
50738;DHT22;36703;48.154;17.126;2023-04-15T07:50:42;12.20;59.30
50738;DHT22;36703;48.154;17.126;2023-04-15T07:54:44;12.10;59.20
50738;DHT22;36703;48.154;17.126;2023-04-15T07:58:45;12.20;59.30
50738;DHT22;36703;48.154;17.126;2023-04-15T08:02:47;12.30;59.10
50738;DHT22;36703;48.154;17.126;2023-04-15T08:06:48;12.30;59.10
50738;DHT22;36703;48.154;17.126;2023-04-15T08:10:50;12.40;59.20
50738;DHT22;36703;48.154;17.126;2023-04-15T08:14:51;12.40;59.30
50738;DHT22;36703;48.154;17.126;2023-04-15T08:18:53;12.40;59.00
50738;DHT22;36703;48.154;17.126;2023-04-15T08:22:55;12.40;59.00
50738;DHT22;36703;48.154;17.126;2023-04-15T08:26:57;12.50;59.00
50738;DHT22;36703;48.154;17.126;2023-04-15T08:30:58;12.50;59.00
50738;DHT22;36703;48.154;17.126;2023-04-15T08:35:00;12.50;59.00
50738;DHT22;36703;48.154;17.126;2023-04-15T08:39:01;12.60;58.80
50738;DHT22;36703;48.154;17.126;2023-04-15T08:43:04;12.70;58.60
50738;DHT22;36703;48.154;17.126;2023-04-15T08:47:08;12.70;58.60
50738;DHT22;36703;48.154;17.126;2023-04-15T08:51:09;12.80;58.40
50738;DHT22;36703;48.154;17.126;2023-04-15T08:55:11;12.80;58.30
50738;DHT22;36703;48.154;17.126;2023-04-15T08:59:13;13.00;58.30
50738;DHT22;36703;48.154;17.126;2023-04-15T09:03:16;13.10;58.10
50738;DHT22;36703;48.154;17.126;2023-04-15T09:07:18;13.10;57.60
50738;DHT22;36703;48.154;17.126;2023-04-15T09:11:20;13.30;57.80
50738;DHT22;36703;48.154;17.126;2023-04-15T09:15:25;13.50;57.70
50738;DHT22;36703;48.154;17.126;2023-04-15T09:19:30;13.60;57.30
50738;DHT22;36703;48.154;17.126;2023-04-15T09:23:34;13.70;57.00
50738;DHT22;36703;48.154;17.126;2023-04-15T09:27:35;13.70;56.90
50738;DHT22;36703;48.154;17.126;2023-04-15T09:31:37;13.70;56.90
50738;DHT22;36703;48.154;17.126;2023-04-15T09:35:39;13.80;56.70
50738;DHT22;36703;48.154;17.126;2023-04-15T09:39:48;13.90;56.60
50738;DHT22;36703;48.154;17.126;2023-04-15T09:43:50;13.90;56.30
50738;DHT22;36703;48.154;17.126;2023-04-15T09:47:51;13.80;55.40
50738;DHT22;36703;48.154;17.126;2023-04-15T09:51:57;13.80;55.40
50738;DHT22;36703;48.154;17.126;2023-04-15T10:00:06;13.90;55.40
50738;DHT22;36703;48.154;17.126;2023-04-15T10:04:09;14.20;54.50
50738;DHT22;36703;48.154;17.126;2023-04-15T10:08:11;14.20;54.80
50738;DHT22;36703;48.154;17.126;2023-04-15T10:12:13;14.30;54.90
50738;DHT22;36703;48.154;17.126;2023-04-15T10:16:19;14.40;54.80
50738;DHT22;36703;48.154;17.126;2023-04-15T10:20:21;14.50;54.80
50738;DHT22;36703;48.154;17.126;2023-04-15T10:24:23;14.50;54.60
50738;DHT22;36703;48.154;17.126;2023-04-15T10:28:25;14.50;54.40
50738;DHT22;36703;48.154;17.126;2023-04-15T10:32:27;14.50;54.40
50738;DHT22;36703;48.154;17.126;2023-04-15T10:36:28;14.60;54.50
50738;DHT22;36703;48.154;17.126;2023-04-15T10:40:31;14.50;54.40
50738;DHT22;36703;48.154;17.126;2023-04-15T10:44:32;14.50;54.40
50738;DHT22;36703;48.154;17.126;2023-04-15T10:48:37;14.30;53.80
50738;DHT22;36703;48.154;17.126;2023-04-15T10:52:39;14.20;54.00
50738;DHT22;36703;48.154;17.126;2023-04-15T10:56:42;14.00;54.10
50738;DHT22;36703;48.154;17.126;2023-04-15T11:00:49;13.90;53.60
50738;DHT22;36703;48.154;17.126;2023-04-15T11:09:00;13.60;53.40
50738;DHT22;36703;48.154;17.126;2023-04-15T11:13:16;13.60;53.40
50738;DHT22;36703;48.154;17.126;2023-04-15T11:17:28;13.50;53.70
50738;DHT22;36703;48.154;17.126;2023-04-15T11:21:29;13.50;53.90
50738;DHT22;36703;48.154;17.126;2023-04-15T11:25:31;13.50;53.90
50738;DHT22;36703;48.154;17.126;2023-04-15T11:29:33;13.30;53.70
50738;DHT22;36703;48.154;17.126;2023-04-15T11:33:35;13.40;53.80
50738;DHT22;36703;48.154;17.126;2023-04-15T11:37:36;13.40;53.50
50738;DHT22;36703;48.154;17.126;2023-04-15T11:41:40;13.40;53.40
50738;DHT22;36703;48.154;17.126;2023-04-15T11:45:53;13.40;53.60
50738;DHT22;36703;48.154;17.126;2023-04-15T11:50:12;13.30;54.00
50738;DHT22;36703;48.154;17.126;2023-04-15T11:54:19;13.20;54.60
50738;DHT22;36703;48.154;17.126;2023-04-15T11:58:21;13.20;55.00
50738;DHT22;36703;48.154;17.126;2023-04-15T12:02:31;13.20;55.40
50738;DHT22;36703;48.154;17.126;2023-04-15T12:06:33;13.30;55.30
50738;DHT22;36703;48.154;17.126;2023-04-15T12:10:35;13.30;55.30
50738;DHT22;36703;48.154;17.126;2023-04-15T12:14:36;13.40;55.40
50738;DHT22;36703;48.154;17.126;2023-04-15T12:18:40;13.50;55.40
50738;DHT22;36703;48.154;17.126;2023-04-15T12:22:41;13.50;55.40
50738;DHT22;36703;48.154;17.126;2023-04-15T12:26:43;13.50;55.00
50738;DHT22;36703;48.154;17.126;2023-04-15T12:30:49;13.50;55.20
50738;DHT22;36703;48.154;17.126;2023-04-15T12:34:53;13.70;55.10
50738;DHT22;36703;48.154;17.126;2023-04-15T12:38:55;13.70;53.40
50738;DHT22;36703;48.154;17.126;2023-04-15T12:42:56;13.80;53.40
50738;DHT22;36703;48.154;17.126;2023-04-15T12:46:58;14.00;53.40
50738;DHT22;36703;48.154;17.126;2023-04-15T12:50:59;14.30;53.30
50738;DHT22;36703;48.154;17.126;2023-04-15T12:55:01;14.50;53.10
50738;DHT22;36703;48.154;17.126;2023-04-15T12:59:02;14.80;53.00
50738;DHT22;36703;48.154;17.126;2023-04-15T13:03:04;15.10;52.80
50738;DHT22;36703;48.154;17.126;2023-04-15T13:07:05;15.30;52.50
50738;DHT22;36703;48.154;17.126;2023-04-15T13:11:06;15.50;52.30
50738;DHT22;36703;48.154;17.126;2023-04-15T13:15:08;15.90;52.20
50738;DHT22;36703;48.154;17.126;2023-04-15T13:19:12;16.20;52.00
50738;DHT22;36703;48.154;17.126;2023-04-15T13:23:14;16.40;51.80
50738;DHT22;36703;48.154;17.126;2023-04-15T13:27:15;16.50;51.80
50738;DHT22;36703;48.154;17.126;2023-04-15T13:31:16;16.60;51.60
50738;DHT22;36703;48.154;17.126;2023-04-15T13:35:18;16.50;51.30
50738;DHT22;36703;48.154;17.126;2023-04-15T13:39:20;16.40;51.40
50738;DHT22;36703;48.154;17.126;2023-04-15T13:43:22;16.30;51.40
50738;DHT22;36703;48.154;17.126;2023-04-15T13:47:23;16.20;51.40
50738;DHT22;36703;48.154;17.126;2023-04-15T13:51:24;16.10;51.30
50738;DHT22;36703;48.154;17.126;2023-04-15T13:55:27;15.90;51.20
50738;DHT22;36703;48.154;17.126;2023-04-15T13:59:28;15.80;51.30
50738;DHT22;36703;48.154;17.126;2023-04-15T14:03:29;15.60;50.80
50738;DHT22;36703;48.154;17.126;2023-04-15T14:07:31;15.20;50.30
50738;DHT22;36703;48.154;17.126;2023-04-15T14:11:32;14.90;50.60
50738;DHT22;36703;48.154;17.126;2023-04-15T14:15:36;14.50;51.60
50738;DHT22;36703;48.154;17.126;2023-04-15T14:19:38;14.20;52.50
50738;DHT22;36703;48.154;17.126;2023-04-15T14:23:39;14.10;53.00
50738;DHT22;36703;48.154;17.126;2023-04-15T14:27:41;14.30;53.00
50738;DHT22;36703;48.154;17.126;2023-04-15T14:31:42;14.50;52.80
50738;DHT22;36703;48.154;17.126;2023-04-15T14:35:44;14.70;52.60
50738;DHT22;36703;48.154;17.126;2023-04-15T14:39:46;14.90;52.60
50738;DHT22;36703;48.154;17.126;2023-04-15T14:43:47;15.00;52.20
50738;DHT22;36703;48.154;17.126;2023-04-15T14:47:49;15.10;52.10
50738;DHT22;36703;48.154;17.126;2023-04-15T14:51:50;15.20;52.10
50738;DHT22;36703;48.154;17.126;2023-04-15T14:55:51;15.10;51.80
50738;DHT22;36703;48.154;17.126;2023-04-15T14:59:53;15.10;51.90
50738;DHT22;36703;48.154;17.126;2023-04-15T15:03:56;15.10;51.90
50738;DHT22;36703;48.154;17.126;2023-04-15T15:07:58;15.00;51.80
50738;DHT22;36703;48.154;17.126;2023-04-15T15:11:59;15.00;51.90
50738;DHT22;36703;48.154;17.126;2023-04-15T15:16:01;15.00;51.90
50738;DHT22;36703;48.154;17.126;2023-04-15T15:20:03;14.90;52.10
50738;DHT22;36703;48.154;17.126;2023-04-15T15:24:05;14.90;52.30
50738;DHT22;36703;48.154;17.126;2023-04-15T15:28:06;15.00;52.20
50738;DHT22;36703;48.154;17.126;2023-04-15T15:32:07;15.10;52.20
50738;DHT22;36703;48.154;17.126;2023-04-15T15:36:09;15.20;52.60
50738;DHT22;36703;48.154;17.126;2023-04-15T15:40:11;15.30;51.90
50738;DHT22;36703;48.154;17.126;2023-04-15T15:44:13;15.20;51.90
50738;DHT22;36703;48.154;17.126;2023-04-15T15:48:14;15.40;52.10
50738;DHT22;36703;48.154;17.126;2023-04-15T15:52:16;15.40;51.90
50738;DHT22;36703;48.154;17.126;2023-04-15T15:56:17;15.30;51.90
50738;DHT22;36703;48.154;17.126;2023-04-15T16:00:19;15.30;52.00
50738;DHT22;36703;48.154;17.126;2023-04-15T16:04:21;15.20;52.10
50738;DHT22;36703;48.154;17.126;2023-04-15T16:08:23;15.20;52.20
50738;DHT22;36703;48.154;17.126;2023-04-15T16:12:24;15.10;52.20
50738;DHT22;36703;48.154;17.126;2023-04-15T16:16:25;15.00;52.20
50738;DHT22;36703;48.154;17.126;2023-04-15T16:20:27;15.10;52.20
50738;DHT22;36703;48.154;17.126;2023-04-15T16:24:28;15.10;52.10
50738;DHT22;36703;48.154;17.126;2023-04-15T16:28:30;15.10;52.10
50738;DHT22;36703;48.154;17.126;2023-04-15T16:32:32;15.10;51.90
50738;DHT22;36703;48.154;17.126;2023-04-15T16:36:33;15.10;52.00
50738;DHT22;36703;48.154;17.126;2023-04-15T16:40:35;15.10;51.90
50738;DHT22;36703;48.154;17.126;2023-04-15T16:44:37;15.00;51.90
50738;DHT22;36703;48.154;17.126;2023-04-15T16:48:38;15.00;51.90
50738;DHT22;36703;48.154;17.126;2023-04-15T16:52:40;15.00;51.90
50738;DHT22;36703;48.154;17.126;2023-04-15T16:56:43;15.00;51.80
50738;DHT22;36703;48.154;17.126;2023-04-15T17:00:44;15.00;51.80
50738;DHT22;36703;48.154;17.126;2023-04-15T17:04:46;14.90;51.70
50738;DHT22;36703;48.154;17.126;2023-04-15T17:08:47;14.90;51.70
50738;DHT22;36703;48.154;17.126;2023-04-15T17:12:48;14.80;51.50
50738;DHT22;36703;48.154;17.126;2023-04-15T17:16:51;14.70;51.50
50738;DHT22;36703;48.154;17.126;2023-04-15T17:20:56;14.70;51.50
50738;DHT22;36703;48.154;17.126;2023-04-15T17:24:57;14.70;51.80
50738;DHT22;36703;48.154;17.126;2023-04-15T17:28:59;14.60;51.10
50738;DHT22;36703;48.154;17.126;2023-04-15T17:33:03;14.50;51.20
50738;DHT22;36703;48.154;17.126;2023-04-15T17:37:04;14.60;51.20
50738;DHT22;36703;48.154;17.126;2023-04-15T17:41:06;14.60;51.10
50738;DHT22;36703;48.154;17.126;2023-04-15T17:45:07;14.70;51.10
50738;DHT22;36703;48.154;17.126;2023-04-15T17:49:09;14.70;51.00
50738;DHT22;36703;48.154;17.126;2023-04-15T17:53:10;14.60;50.90
50738;DHT22;36703;48.154;17.126;2023-04-15T17:57:12;14.50;50.90
50738;DHT22;36703;48.154;17.126;2023-04-15T18:01:13;14.50;51.00
50738;DHT22;36703;48.154;17.126;2023-04-15T18:05:15;14.40;51.00
50738;DHT22;36703;48.154;17.126;2023-04-15T18:09:18;14.30;51.10
50738;DHT22;36703;48.154;17.126;2023-04-15T18:13:20;14.30;51.10
50738;DHT22;36703;48.154;17.126;2023-04-15T18:17:21;14.30;51.20
50738;DHT22;36703;48.154;17.126;2023-04-15T18:21:23;14.30;51.20
50738;DHT22;36703;48.154;17.126;2023-04-15T18:25:24;14.20;51.20
50738;DHT22;36703;48.154;17.126;2023-04-15T18:29:25;14.20;51.20
50738;DHT22;36703;48.154;17.126;2023-04-15T18:33:27;14.20;51.20
50738;DHT22;36703;48.154;17.126;2023-04-15T18:37:28;14.30;51.30
50738;DHT22;36703;48.154;17.126;2023-04-15T18:41:30;14.20;51.30
50738;DHT22;36703;48.154;17.126;2023-04-15T18:45:31;14.10;51.30
50738;DHT22;36703;48.154;17.126;2023-04-15T18:49:33;14.10;51.30
50738;DHT22;36703;48.154;17.126;2023-04-15T18:53:34;14.10;51.40
50738;DHT22;36703;48.154;17.126;2023-04-15T18:57:35;14.10;51.40
50738;DHT22;36703;48.154;17.126;2023-04-15T19:01:42;14.10;51.30
50738;DHT22;36703;48.154;17.126;2023-04-15T19:05:43;14.00;51.50
50738;DHT22;36703;48.154;17.126;2023-04-15T19:09:45;14.00;51.50
50738;DHT22;36703;48.154;17.126;2023-04-15T19:13:47;14.00;51.50
50738;DHT22;36703;48.154;17.126;2023-04-15T19:17:48;14.00;51.50
50738;DHT22;36703;48.154;17.126;2023-04-15T19:21:50;14.00;51.40
50738;DHT22;36703;48.154;17.126;2023-04-15T19:25:52;13.80;51.50
50738;DHT22;36703;48.154;17.126;2023-04-15T19:29:54;13.90;51.80
50738;DHT22;36703;48.154;17.126;2023-04-15T19:33:55;14.30;51.90
50738;DHT22;36703;48.154;17.126;2023-04-15T19:37:57;13.60;51.70
50738;DHT22;36703;48.154;17.126;2023-04-15T19:41:58;13.80;52.10
50738;DHT22;36703;48.154;17.126;2023-04-15T19:46:00;13.40;52.00
50738;DHT22;36703;48.154;17.126;2023-04-15T19:50:01;13.20;52.10
50738;DHT22;36703;48.154;17.126;2023-04-15T19:54:03;13.30;52.20
50738;DHT22;36703;48.154;17.126;2023-04-15T19:58:04;13.30;52.20
50738;DHT22;36703;48.154;17.126;2023-04-15T20:02:05;13.40;52.10
50738;DHT22;36703;48.154;17.126;2023-04-15T20:06:07;13.30;52.00
50738;DHT22;36703;48.154;17.126;2023-04-15T20:10:09;13.10;52.30
50738;DHT22;36703;48.154;17.126;2023-04-15T20:14:12;13.00;52.50
50738;DHT22;36703;48.154;17.126;2023-04-15T20:18:13;12.90;52.60
50738;DHT22;36703;48.154;17.126;2023-04-15T20:22:15;13.00;52.70
50738;DHT22;36703;48.154;17.126;2023-04-15T20:26:16;13.00;52.70
50738;DHT22;36703;48.154;17.126;2023-04-15T20:30:18;13.00;52.70
50738;DHT22;36703;48.154;17.126;2023-04-15T20:34:19;13.00;52.60
50738;DHT22;36703;48.154;17.126;2023-04-15T20:38:21;13.00;52.70
50738;DHT22;36703;48.154;17.126;2023-04-15T20:42:22;12.90;52.80
50738;DHT22;36703;48.154;17.126;2023-04-15T20:46:23;12.90;52.80
50738;DHT22;36703;48.154;17.126;2023-04-15T20:50:25;12.90;52.80
50738;DHT22;36703;48.154;17.126;2023-04-15T20:54:26;13.00;52.80
50738;DHT22;36703;48.154;17.126;2023-04-15T20:58:28;13.10;52.90
50738;DHT22;36703;48.154;17.126;2023-04-15T21:02:29;13.10;52.80
50738;DHT22;36703;48.154;17.126;2023-04-15T21:06:31;13.10;52.70
50738;DHT22;36703;48.154;17.126;2023-04-15T21:10:33;13.10;52.70
50738;DHT22;36703;48.154;17.126;2023-04-15T21:14:35;13.10;52.70
50738;DHT22;36703;48.154;17.126;2023-04-15T21:18:36;13.00;52.70
50738;DHT22;36703;48.154;17.126;2023-04-15T21:22:38;13.00;52.70
50738;DHT22;36703;48.154;17.126;2023-04-15T21:26:39;12.90;52.80
50738;DHT22;36703;48.154;17.126;2023-04-15T21:30:41;12.90;52.80
50738;DHT22;36703;48.154;17.126;2023-04-15T21:34:42;12.90;52.90
50738;DHT22;36703;48.154;17.126;2023-04-15T21:38:43;12.90;53.00
50738;DHT22;36703;48.154;17.126;2023-04-15T21:42:45;12.90;52.90
50738;DHT22;36703;48.154;17.126;2023-04-15T21:46:49;12.90;52.90
50738;DHT22;36703;48.154;17.126;2023-04-15T21:50:51;12.80;52.90
50738;DHT22;36703;48.154;17.126;2023-04-15T21:54:52;12.90;53.00
50738;DHT22;36703;48.154;17.126;2023-04-15T21:58:54;12.90;52.90
50738;DHT22;36703;48.154;17.126;2023-04-15T22:02:56;12.80;52.90
50738;DHT22;36703;48.154;17.126;2023-04-15T22:06:58;12.80;52.90
50738;DHT22;36703;48.154;17.126;2023-04-15T22:11:01;12.80;52.90
50738;DHT22;36703;48.154;17.126;2023-04-15T22:15:03;12.80;53.00
50738;DHT22;36703;48.154;17.126;2023-04-15T22:19:04;12.80;52.90
50738;DHT22;36703;48.154;17.126;2023-04-15T22:23:06;12.90;53.00
50738;DHT22;36703;48.154;17.126;2023-04-15T22:27:10;12.90;52.90
50738;DHT22;36703;48.154;17.126;2023-04-15T22:31:11;12.90;52.80
50738;DHT22;36703;48.154;17.126;2023-04-15T22:35:13;12.90;52.80
50738;DHT22;36703;48.154;17.126;2023-04-15T22:39:15;13.20;52.90
50738;DHT22;36703;48.154;17.126;2023-04-15T22:43:16;12.90;52.70
50738;DHT22;36703;48.154;17.126;2023-04-15T22:47:18;12.90;52.70
50738;DHT22;36703;48.154;17.126;2023-04-15T22:51:20;12.90;52.70
50738;DHT22;36703;48.154;17.126;2023-04-15T22:55:26;12.90;52.70
50738;DHT22;36703;48.154;17.126;2023-04-15T22:59:28;12.90;52.80
50738;DHT22;36703;48.154;17.126;2023-04-15T23:03:29;12.90;52.80
50738;DHT22;36703;48.154;17.126;2023-04-15T23:07:31;12.90;52.80
50738;DHT22;36703;48.154;17.126;2023-04-15T23:11:33;12.80;52.80
50738;DHT22;36703;48.154;17.126;2023-04-15T23:15:34;12.90;52.90
50738;DHT22;36703;48.154;17.126;2023-04-15T23:19:36;12.90;52.70
50738;DHT22;36703;48.154;17.126;2023-04-15T23:23:37;12.90;52.70
50738;DHT22;36703;48.154;17.126;2023-04-15T23:27:38;12.90;52.60
50738;DHT22;36703;48.154;17.126;2023-04-15T23:31:40;12.80;52.60
50738;DHT22;36703;48.154;17.126;2023-04-15T23:35:41;12.80;52.80
50738;DHT22;36703;48.154;17.126;2023-04-15T23:39:43;12.70;52.80
50738;DHT22;36703;48.154;17.126;2023-04-15T23:43:44;12.70;52.80
50738;DHT22;36703;48.154;17.126;2023-04-15T23:47:46;12.70;52.80
50738;DHT22;36703;48.154;17.126;2023-04-15T23:51:47;12.70;52.80
50738;DHT22;36703;48.154;17.126;2023-04-15T23:55:48;12.60;52.90
50738;DHT22;36703;48.154;17.126;2023-04-15T23:59:50;12.50;52.90
